createdAt,value
2022-08-14T00:02:22.941Z,100279.63
2022-08-14T00:04:52.164Z,100279.34
2022-08-14T00:07:20.287Z,100278.81
2022-08-14T00:10:02.483Z,100279.47
2022-08-14T00:12:39.317Z,100272.75
2022-08-14T00:15:16.855Z,100277.47
2022-08-14T00:17:48.140Z,100274.78
2022-08-14T00:20:30.806Z,100276.34
2022-08-14T00:23:14.584Z,100271.97
2022-08-14T00:26:06.274Z,100259.31
2022-08-14T00:28:36.984Z,100258.69
2022-08-14T00:31:08.002Z,100262.75
2022-08-14T00:33:52.382Z,100259.91
2022-08-14T00:36:39.243Z,100257.53
2022-08-14T00:39:15.226Z,100262.75
2022-08-14T00:41:47.449Z,100264.44
2022-08-14T00:44:15.305Z,100260.91
2022-08-14T00:46:58.799Z,100261.19
2022-08-14T00:49:30.247Z,100263.44
2022-08-14T00:52:00.572Z,100254.31
2022-08-14T00:54:28.385Z,100261.38
2022-08-14T00:56:56.219Z,100262.41
2022-08-14T00:59:26.028Z,100262.72
2022-08-14T01:01:59.834Z,100259.00
2022-08-14T01:04:38.188Z,100267.75
2022-08-14T01:07:20.877Z,100264.22
2022-08-14T01:09:52.353Z,100264.59
2022-08-14T01:12:26.348Z,100261.38
2022-08-14T01:14:58.110Z,100265.44
2022-08-14T01:17:51.944Z,100254.38
2022-08-14T01:20:41.241Z,100248.97
2022-08-14T01:23:16.203Z,100254.00
2022-08-14T01:25:51.808Z,100258.56
2022-08-14T01:28:46.980Z,100255.66
2022-08-14T01:31:16.172Z,100254.50
2022-08-14T01:35:15.831Z,100258.22
2022-08-14T01:36:39.102Z,100254.50
2022-08-14T01:39:18.011Z,100256.88
2022-08-14T01:41:56.384Z,100258.38
2022-08-14T01:44:32.907Z,100258.91
2022-08-14T01:47:21.593Z,100249.81
2022-08-14T01:49:59.549Z,100251.66
2022-08-14T01:52:58.057Z,100251.34
2022-08-14T01:55:32.236Z,100246.59
2022-08-14T01:58:20.305Z,100247.31
2022-08-14T02:00:54.986Z,100245.44
2022-08-14T02:03:30.038Z,100252.69
2022-08-14T02:06:04.242Z,100250.00
2022-08-14T02:08:52.817Z,100255.56
2022-08-14T02:11:25.259Z,100254.06
2022-08-14T02:14:07.510Z,100248.81
2022-08-14T02:16:42.155Z,100252.41
2022-08-14T02:19:14.401Z,100253.25
2022-08-14T02:21:48.925Z,100247.00
2022-08-14T02:24:39.368Z,100249.38
2022-08-14T02:28:24.095Z,100247.53
2022-08-14T02:30:02.126Z,100248.19
2022-08-14T02:32:36.466Z,100247.03
2022-08-14T02:35:19.276Z,100250.72
2022-08-14T02:37:50.227Z,100247.38
2022-08-14T02:40:20.280Z,100248.88
2022-08-14T02:42:54.534Z,100251.06
2022-08-14T02:45:38.234Z,100252.25
2022-08-14T02:49:03.008Z,100251.56
2022-08-14T02:51:13.650Z,100256.97
2022-08-14T02:53:44.343Z,100260.16
2022-08-14T02:56:30.614Z,100252.59
2022-08-14T02:59:08.140Z,100251.75
2022-08-14T03:01:43.289Z,100243.16
2022-08-14T03:04:15.882Z,100246.19
2022-08-14T03:06:57.550Z,100249.91
2022-08-14T03:10:25.543Z,100237.25
2022-08-14T03:12:32.288Z,100247.72
2022-08-14T03:15:07.250Z,100240.97
2022-08-14T03:17:41.065Z,100244.31
2022-08-14T03:20:23.890Z,100238.59
2022-08-14T03:22:52.695Z,100248.38
2022-08-14T03:25:22.545Z,100239.44
2022-08-14T03:27:58.664Z,100238.91
2022-08-14T03:30:39.238Z,100239.63
2022-08-14T03:33:12.577Z,100234.88
2022-08-14T03:36:00.181Z,100236.56
2022-08-14T03:39:13.789Z,100238.22
2022-08-14T03:41:23.110Z,100231.50
2022-08-14T03:44:01.553Z,100223.41
2022-08-14T03:46:53.109Z,100226.72
2022-08-14T03:49:28.312Z,100235.81
2022-08-14T03:51:58.320Z,100232.09
2022-08-14T03:54:29.335Z,100229.53
2022-08-14T03:57:02.875Z,100228.00
2022-08-14T03:59:35.330Z,100226.31
2022-08-14T04:02:04.128Z,100232.03
2022-08-14T04:04:33.386Z,100225.25
2022-08-14T04:07:01.787Z,100224.06
2022-08-14T04:09:29.509Z,100236.66
2022-08-14T04:12:00.021Z,100226.22
2022-08-14T04:14:29.809Z,100222.34
2022-08-14T04:16:58.049Z,100225.00
2022-08-14T04:19:28.051Z,100226.34
2022-08-14T04:22:03.579Z,100224.09
2022-08-14T04:24:38.120Z,100227.47
2022-08-14T04:27:09.749Z,100222.03
2022-08-14T04:29:40.254Z,100217.75
2022-08-14T04:32:58.631Z,100221.41
2022-08-14T04:35:07.814Z,100222.72
2022-08-14T04:37:57.447Z,100225.00
2022-08-14T04:40:43.607Z,100223.72
2022-08-14T04:43:38.608Z,100225.50
2022-08-14T04:46:09.073Z,100233.19
2022-08-14T04:48:43.602Z,100225.19
2022-08-14T04:51:21.709Z,100227.50
2022-08-14T04:53:51.318Z,100228.94
2022-08-14T04:56:30.518Z,100226.03
2022-08-14T04:59:10.694Z,100223.97
2022-08-14T05:01:49.787Z,100234.06
2022-08-14T05:04:21.242Z,100229.13
2022-08-14T05:06:53.375Z,100228.59
2022-08-14T05:09:28.802Z,100240.97
2022-08-14T05:13:09.275Z,100239.84
2022-08-14T05:14:53.574Z,100243.16
2022-08-14T05:17:32.062Z,100246.09
2022-08-14T05:21:56.028Z,100246.47
2022-08-14T05:23:01.270Z,100246.34
2022-08-14T05:25:31.291Z,100239.63
2022-08-14T05:28:19.366Z,100244.91
2022-08-14T05:30:50.833Z,100235.84
2022-08-14T05:33:21.184Z,100243.59
2022-08-14T05:35:48.981Z,100236.94
2022-08-14T05:38:22.264Z,100245.72
2022-08-14T05:40:59.786Z,100247.66
2022-08-14T05:43:33.042Z,100244.09
2022-08-14T05:46:15.451Z,100253.81
2022-08-14T05:48:43.806Z,100245.59
2022-08-14T05:51:13.514Z,100245.59
2022-08-14T05:53:42.483Z,100248.28
2022-08-14T05:56:10.216Z,100248.09
2022-08-14T05:58:40.902Z,100241.44
2022-08-14T06:01:10.301Z,100248.16
2022-08-14T06:03:40.194Z,100237.38
2022-08-14T06:06:08.252Z,100244.94
2022-08-14T06:08:41.739Z,100234.59
2022-08-14T06:11:10.714Z,100241.16
2022-08-14T06:13:47.845Z,100242.81
2022-08-14T06:16:18.853Z,100236.72
2022-08-14T06:18:51.834Z,100241.78
2022-08-14T06:21:24.431Z,100238.28
2022-08-14T06:23:53.741Z,100233.72
2022-08-14T06:26:22.773Z,100235.84
2022-08-14T06:28:58.349Z,100237.16
2022-08-14T06:31:26.053Z,100232.22
2022-08-14T06:35:09.214Z,100233.94
2022-08-14T06:36:41.448Z,100233.78
2022-08-14T06:39:10.560Z,100239.88
2022-08-14T06:41:58.522Z,100239.47
2022-08-14T06:44:32.670Z,100235.97
2022-08-14T06:47:05.404Z,100230.72
2022-08-14T06:49:45.068Z,100240.97
2022-08-14T06:52:21.949Z,100237.06
2022-08-14T06:54:49.972Z,100235.34
2022-08-14T06:57:18.120Z,100241.66
2022-08-14T06:59:45.980Z,100242.09
2022-08-14T07:02:32.179Z,100237.50
2022-08-14T07:05:23.610Z,100237.28
2022-08-14T07:07:51.974Z,100240.22
2022-08-14T07:10:24.975Z,100246.94
2022-08-14T07:13:04.049Z,100249.69
2022-08-14T07:15:34.103Z,100254.94
2022-08-14T07:18:03.745Z,100244.09
2022-08-14T07:20:37.723Z,100246.41
2022-08-14T07:23:11.094Z,100252.69
2022-08-14T07:25:48.852Z,100243.69
2022-08-14T07:28:23.882Z,100243.31
2022-08-14T07:31:04.675Z,100240.41
2022-08-14T07:33:43.559Z,100240.59
2022-08-14T07:36:26.646Z,100248.53
2022-08-14T07:38:57.988Z,100248.31
2022-08-14T07:41:31.181Z,100251.63
2022-08-14T07:44:29.096Z,100246.44
2022-08-14T07:46:50.844Z,100250.81
2022-08-14T07:49:20.281Z,100249.53
2022-08-14T07:51:49.518Z,100252.25
2022-08-14T07:54:23.385Z,100249.75
2022-08-14T07:57:00.502Z,100249.13
2022-08-14T07:59:41.420Z,100249.16
2022-08-14T08:02:19.030Z,100247.69
2022-08-14T08:04:54.534Z,100244.78
2022-08-14T08:07:29.419Z,100239.34
2022-08-14T08:10:01.175Z,100243.31
2022-08-14T08:12:32.259Z,100238.50
2022-08-14T08:15:05.963Z,100251.22
2022-08-14T08:17:42.862Z,100243.91
2022-08-14T08:20:27.367Z,100246.81
2022-08-14T08:23:00.721Z,100238.44
2022-08-14T08:25:39.802Z,100247.63
2022-08-14T08:28:21.744Z,100249.75
2022-08-14T08:30:56.354Z,100241.94
2022-08-14T08:33:32.143Z,100231.25
2022-08-14T08:36:12.967Z,100234.19
2022-08-14T08:39:18.490Z,100223.31
2022-08-14T08:41:50.475Z,100233.59
2022-08-14T08:44:31.738Z,100230.22
2022-08-14T08:47:06.496Z,100221.38
2022-08-14T08:49:48.697Z,100215.69
2022-08-14T08:52:31.742Z,100215.66
2022-08-14T08:55:01.293Z,100214.31
2022-08-14T08:57:37.722Z,100207.97
2022-08-14T09:00:25.016Z,100205.75
2022-08-14T09:03:00.086Z,100202.97
2022-08-14T09:05:28.916Z,100197.50
2022-08-14T09:08:30.812Z,100191.16
2022-08-14T09:11:19.751Z,100185.09
2022-08-14T09:13:51.635Z,100191.13
2022-08-14T09:16:25.820Z,100187.53
2022-08-14T09:18:54.814Z,100183.31
2022-08-14T09:21:24.114Z,100185.41
2022-08-14T09:24:29.193Z,100174.88
2022-08-14T09:26:49.560Z,100179.66
2022-08-14T09:29:20.017Z,100172.97
2022-08-14T09:31:57.276Z,100168.16
2022-08-14T09:34:58.785Z,100172.28
2022-08-14T09:38:03.800Z,100168.22
2022-08-14T09:40:41.076Z,100175.19
2022-08-14T09:43:25.422Z,100165.09
2022-08-14T09:45:58.388Z,100160.34
2022-08-14T09:48:31.342Z,100164.47
2022-08-14T09:54:19.164Z,100159.44
2022-08-14T09:56:31.041Z,100157.13
2022-08-14T09:59:15.192Z,100152.63
2022-08-14T10:01:46.125Z,100152.63
2022-08-14T10:04:35.000Z,100159.03
2022-08-14T10:07:08.560Z,100152.44
2022-08-14T10:09:59.837Z,100159.75
2022-08-14T10:12:47.733Z,100150.81
2022-08-14T10:15:21.486Z,100160.59
2022-08-14T10:17:49.691Z,100157.03
2022-08-14T10:20:40.246Z,100149.41
2022-08-14T10:23:22.114Z,100153.13
2022-08-14T10:25:53.506Z,100155.72
2022-08-14T10:28:51.564Z,100155.38
2022-08-14T10:31:25.307Z,100160.56
2022-08-14T10:34:12.965Z,100156.75
2022-08-14T10:36:49.893Z,100150.00
2022-08-14T10:39:22.203Z,100142.50
2022-08-14T10:41:59.818Z,100160.66
2022-08-14T10:44:35.706Z,100159.78
2022-08-14T10:47:41.637Z,100152.56
2022-08-14T10:49:58.326Z,100152.03
2022-08-14T10:52:33.933Z,100150.38
2022-08-14T10:55:09.584Z,100157.38
2022-08-14T10:57:52.558Z,100152.16
2022-08-14T11:00:30.228Z,100155.94
2022-08-14T11:03:19.730Z,100156.91
2022-08-14T11:05:55.944Z,100156.44
2022-08-14T11:08:34.140Z,100157.16
2022-08-14T11:11:05.569Z,100158.56
2022-08-14T11:13:34.571Z,100153.81
2022-08-14T11:16:02.379Z,100155.94
2022-08-14T11:18:35.975Z,100155.88
2022-08-14T11:21:09.691Z,100156.59
2022-08-14T11:23:43.686Z,100151.97
2022-08-14T11:26:14.222Z,100141.53
2022-08-14T11:28:48.809Z,100148.16
2022-08-14T11:31:23.821Z,100151.25
2022-08-14T11:33:55.477Z,100152.06
2022-08-14T11:36:57.280Z,100145.59
2022-08-14T11:39:34.482Z,100143.72
2022-08-14T11:42:56.141Z,100140.69
2022-08-14T11:45:11.096Z,100146.50
2022-08-14T11:48:13.275Z,100135.97
2022-08-14T11:50:37.927Z,100136.09
2022-08-14T11:53:08.735Z,100147.78
2022-08-14T11:55:39.688Z,100135.16
2022-08-14T11:58:10.597Z,100131.38
2022-08-14T12:00:57.295Z,100133.47
2022-08-14T12:03:51.570Z,100124.19
2022-08-14T12:06:28.562Z,100123.03
2022-08-14T12:09:08.373Z,100127.78
2022-08-14T12:11:43.169Z,100129.69
2022-08-14T12:14:29.880Z,100122.69
2022-08-14T12:17:12.166Z,100117.09
2022-08-14T12:19:53.974Z,100123.00
2022-08-14T12:22:37.648Z,100117.47
2022-08-14T12:25:11.536Z,100114.28
2022-08-14T12:27:41.655Z,100116.25
2022-08-14T12:30:26.855Z,100117.44
2022-08-14T12:33:03.948Z,100115.28
2022-08-14T12:35:40.227Z,100113.25
2022-08-14T12:38:08.771Z,100118.03
2022-08-14T12:40:52.784Z,100108.50
2022-08-14T12:43:23.765Z,100109.69
2022-08-14T12:45:57.240Z,100107.31
2022-08-14T12:48:31.937Z,100107.94
2022-08-14T12:51:00.113Z,100103.63
2022-08-14T12:53:38.554Z,100097.94
2022-08-14T12:56:22.357Z,100104.47
2022-08-14T12:58:56.759Z,100106.63
2022-08-14T13:01:31.154Z,100094.13
2022-08-14T13:04:17.491Z,100089.00
2022-08-14T13:06:50.832Z,100100.31
2022-08-14T13:09:20.611Z,100087.34
2022-08-14T13:11:54.772Z,100093.31
2022-08-14T13:14:30.415Z,100093.31
2022-08-14T13:16:58.650Z,100090.34
2022-08-14T13:19:28.313Z,100094.63
2022-08-14T13:22:05.141Z,100092.22
2022-08-14T13:24:35.039Z,100092.44
2022-08-14T13:27:05.021Z,100084.72
2022-08-14T13:29:43.929Z,100078.19
2022-08-14T13:32:16.327Z,100079.94
2022-08-14T13:34:46.127Z,100074.72
2022-08-14T13:37:17.953Z,100076.50
2022-08-14T13:39:56.661Z,100076.03
2022-08-14T13:42:30.304Z,100070.91
2022-08-14T13:45:02.469Z,100071.53
2022-08-14T13:47:33.257Z,100068.56
2022-08-14T13:50:04.794Z,100051.34
2022-08-14T13:52:52.091Z,100063.69
2022-08-14T13:55:23.457Z,100065.16
2022-08-14T13:58:02.985Z,100066.88
2022-08-14T14:00:35.737Z,100060.47
2022-08-14T14:03:21.794Z,100064.16
2022-08-14T14:05:55.009Z,100060.97
2022-08-14T14:08:46.969Z,100055.50
2022-08-14T14:11:14.200Z,100064.09
2022-08-14T14:13:48.660Z,100055.88
2022-08-14T14:16:26.299Z,100064.50
2022-08-14T14:19:10.446Z,100063.09
2022-08-14T14:21:40.334Z,100056.06
2022-08-14T14:24:15.103Z,100055.78
2022-08-14T14:26:50.140Z,100049.63
2022-08-14T14:29:24.239Z,100056.88
2022-08-14T14:31:54.428Z,100057.31
2022-08-14T14:34:30.230Z,100048.53
2022-08-14T14:37:04.629Z,100059.22
2022-08-14T14:39:37.479Z,100055.66
2022-08-14T14:42:09.246Z,100042.66
2022-08-14T14:44:40.723Z,100046.97
2022-08-14T14:47:10.506Z,100050.44
2022-08-14T14:49:51.309Z,100045.13
2022-08-14T14:52:27.683Z,100049.72
2022-08-14T14:54:58.254Z,100048.44
2022-08-14T14:57:34.581Z,100045.13
2022-08-14T15:00:08.839Z,100041.84
2022-08-14T15:02:43.690Z,100048.94
2022-08-14T15:05:14.433Z,100049.25
2022-08-14T15:07:43.244Z,100052.59
2022-08-14T15:10:27.784Z,100053.06
2022-08-14T15:13:00.352Z,100044.19
2022-08-14T15:15:37.322Z,100049.50
2022-08-14T15:18:35.782Z,100048.94
2022-08-14T15:20:58.193Z,100041.50
2022-08-14T15:23:44.440Z,100043.81
2022-08-14T15:26:24.146Z,100054.13
2022-08-14T15:29:06.508Z,100056.16
2022-08-14T15:31:38.783Z,100047.13
2022-08-14T15:34:44.143Z,100045.50
2022-08-14T15:37:04.772Z,100051.72
2022-08-14T15:39:35.703Z,100043.28
2022-08-14T15:42:14.566Z,100051.75
2022-08-14T15:44:58.608Z,100051.41
2022-08-14T15:47:32.564Z,100056.91
2022-08-14T15:50:04.922Z,100054.50
2022-08-14T15:52:37.065Z,100056.16
2022-08-14T15:55:08.767Z,100056.59
2022-08-14T15:57:39.489Z,100064.88
2022-08-14T16:00:49.935Z,100068.16
2022-08-14T16:03:27.847Z,100058.22
2022-08-14T16:06:10.971Z,100059.50
2022-08-14T16:08:45.526Z,100055.78
2022-08-14T16:11:14.977Z,100064.22
2022-08-14T16:13:44.694Z,100064.63
2022-08-14T16:16:34.990Z,100069.69
2022-08-14T16:19:13.070Z,100069.53
2022-08-14T16:21:58.373Z,100072.09
2022-08-14T16:24:33.403Z,100077.84
2022-08-14T16:27:05.282Z,100077.66
2022-08-14T16:29:35.792Z,100074.81
2022-08-14T16:32:33.388Z,100083.41
2022-08-14T16:34:55.789Z,100086.41
2022-08-14T16:37:30.378Z,100089.59
2022-08-14T16:40:00.766Z,100087.28
2022-08-14T16:42:39.044Z,100097.59
2022-08-14T16:45:26.219Z,100087.13
2022-08-14T16:47:55.944Z,100086.97
2022-08-14T16:50:40.467Z,100085.28
2022-08-14T16:53:12.476Z,100083.81
2022-08-14T16:55:53.516Z,100078.19
2022-08-14T16:58:30.246Z,100088.88
2022-08-14T17:01:16.503Z,100087.88
2022-08-14T17:04:14.936Z,100092.69
2022-08-14T17:06:55.235Z,100090.88
2022-08-14T17:09:48.984Z,100092.94
2022-08-14T17:12:34.056Z,100092.81
2022-08-14T17:15:15.010Z,100103.28
2022-08-14T17:17:57.744Z,100106.44
2022-08-14T17:20:53.396Z,100104.78
2022-08-14T17:23:14.382Z,100112.84
2022-08-14T17:25:49.451Z,100111.59
2022-08-14T17:28:52.759Z,100115.13
2022-08-14T17:31:09.800Z,100121.44
2022-08-14T17:33:40.657Z,100125.25
2022-08-14T17:36:21.488Z,100124.63
2022-08-14T17:38:59.712Z,100116.28
2022-08-14T17:41:32.878Z,100123.88
2022-08-14T17:44:20.235Z,100125.31
2022-08-14T17:46:59.622Z,100126.41
2022-08-14T17:49:35.295Z,100132.69
2022-08-14T17:52:17.535Z,100131.00
2022-08-14T17:54:59.122Z,100141.28
2022-08-14T17:57:45.383Z,100140.19
2022-08-14T18:00:16.526Z,100140.19
2022-08-14T18:02:51.148Z,100139.59
2022-08-14T18:05:22.842Z,100131.84
2022-08-14T18:08:31.385Z,100118.91
2022-08-14T18:10:54.862Z,100112.00
2022-08-14T18:13:50.403Z,100111.81
2022-08-14T18:16:19.647Z,100099.69
2022-08-14T18:18:48.811Z,100104.28
2022-08-14T18:21:40.616Z,100105.34
2022-08-14T18:24:20.285Z,100121.00
2022-08-14T18:27:08.893Z,100115.16
2022-08-14T18:29:54.857Z,100118.50
2022-08-14T18:32:32.210Z,100116.00
2022-08-14T18:35:11.309Z,100112.22
2022-08-14T18:37:42.240Z,100109.50
2022-08-14T18:40:34.538Z,100103.88
2022-08-14T18:43:03.722Z,100113.50
2022-08-14T18:45:41.455Z,100113.91
2022-08-14T18:48:33.320Z,100123.75
2022-08-14T18:51:45.496Z,100115.59
2022-08-14T18:54:33.062Z,100110.56
2022-08-14T18:57:05.344Z,100099.91
2022-08-14T18:59:43.074Z,100096.97
2022-08-14T19:02:30.435Z,100085.72
2022-08-14T19:05:02.561Z,100077.34
2022-08-14T19:07:33.264Z,100083.81
2022-08-14T19:10:06.294Z,100089.25
2022-08-14T19:12:56.666Z,100088.41
2022-08-14T19:15:36.333Z,100080.88
2022-08-14T19:18:25.898Z,100080.03
2022-08-14T19:21:00.605Z,100086.91
2022-08-14T19:23:42.867Z,100085.91
2022-08-14T19:26:36.104Z,100087.56
2022-08-14T19:29:37.772Z,100077.09
2022-08-14T19:32:36.506Z,100077.09
2022-08-14T19:35:48.819Z,100075.88
2022-08-14T19:38:53.253Z,100085.44
2022-08-14T19:41:35.562Z,100089.00
2022-08-14T19:44:19.374Z,100080.84
2022-08-14T19:47:01.872Z,100077.06
2022-08-14T19:50:24.946Z,100082.31
2022-08-14T19:52:35.314Z,100090.63
2022-08-14T19:55:34.717Z,100097.31
2022-08-14T19:58:03.584Z,100090.63
2022-08-14T20:00:31.802Z,100082.91
2022-08-14T20:03:10.926Z,100084.31
2022-08-14T20:05:45.725Z,100079.31
2022-08-14T20:09:05.914Z,100077.63
2022-08-14T20:12:02.291Z,100074.09
2022-08-14T20:14:12.456Z,100075.31
2022-08-14T20:17:05.954Z,100071.34
2022-08-14T20:19:37.717Z,100073.66
2022-08-14T20:22:36.829Z,100074.06
2022-08-14T20:25:16.535Z,100069.84
2022-08-14T20:27:47.665Z,100061.94
2022-08-14T20:30:33.792Z,100067.31
2022-08-14T20:33:10.857Z,100055.22
2022-08-14T20:35:38.983Z,100058.78
2022-08-14T20:38:29.397Z,100066.69
2022-08-14T20:41:09.651Z,100058.53
2022-08-14T20:43:59.703Z,100062.50
2022-08-14T20:46:31.715Z,100062.25
2022-08-14T20:49:05.395Z,100064.97
2022-08-14T20:51:47.750Z,100056.59
2022-08-14T20:54:34.184Z,100055.19
2022-08-14T20:57:10.236Z,100058.50
2022-08-14T20:59:53.570Z,100054.53
2022-08-14T21:02:50.079Z,100057.63
2022-08-14T21:05:34.038Z,100053.03
2022-08-14T21:08:10.019Z,100053.84
2022-08-14T21:10:56.685Z,100045.31
2022-08-14T21:14:08.731Z,100044.66
2022-08-14T21:16:33.420Z,100032.53
2022-08-14T21:19:04.003Z,100037.28
2022-08-14T21:21:41.434Z,100035.19
2022-08-14T21:24:39.915Z,100034.97
2022-08-14T21:27:12.488Z,100030.81
2022-08-14T21:29:53.786Z,100028.69
2022-08-14T21:32:50.596Z,100029.94
2022-08-14T21:35:24.515Z,100016.78
2022-08-14T21:37:53.813Z,100017.63
2022-08-14T21:40:41.953Z,100015.56
2022-08-14T21:43:20.081Z,100013.28
2022-08-14T21:45:53.506Z,100011.81
2022-08-14T21:48:26.239Z,100013.03
2022-08-14T21:51:01.248Z,100005.53
2022-08-14T21:53:58.669Z,100006.16
2022-08-14T21:56:39.570Z,100003.22
2022-08-14T21:59:17.885Z,99999.31
2022-08-14T22:02:00.195Z,100000.53
2022-08-14T22:04:40.011Z,99997.81
2022-08-14T22:07:16.761Z,99991.31
2022-08-14T22:09:54.967Z,100002.56
2022-08-14T22:12:45.357Z,99989.44
2022-08-14T22:15:17.995Z,99987.41
2022-08-14T22:17:52.303Z,99988.19
2022-08-14T22:20:25.662Z,99991.94
2022-08-14T22:22:56.176Z,99989.03
2022-08-14T22:25:33.127Z,99986.13
2022-08-14T22:28:06.231Z,99995.06
2022-08-14T22:30:38.071Z,99999.03
2022-08-14T22:33:10.016Z,99991.53
2022-08-14T22:35:41.064Z,99990.69
2022-08-14T22:38:37.938Z,99993.38
2022-08-14T22:41:27.451Z,99993.00
2022-08-14T22:43:53.340Z,99994.81
2022-08-14T22:46:22.134Z,99994.66
2022-08-14T22:48:51.387Z,99994.44
2022-08-14T22:51:22.286Z,99991.13
2022-08-14T22:53:53.518Z,99986.91
2022-08-14T22:56:29.149Z,99996.06
2022-08-14T22:58:59.360Z,99988.38
2022-08-14T23:01:57.250Z,99982.28
2022-08-14T23:04:35.948Z,99975.41
2022-08-14T23:07:22.812Z,99977.66
2022-08-14T23:09:57.634Z,99985.59
2022-08-14T23:12:47.700Z,99984.28
2022-08-14T23:15:24.827Z,99977.84
2022-08-14T23:17:58.501Z,99982.63
2022-08-14T23:20:29.223Z,99973.03
2022-08-14T23:22:58.290Z,99974.22
2022-08-14T23:25:57.462Z,99978.19
2022-08-14T23:28:33.400Z,99967.09
2022-08-14T23:31:05.638Z,99977.50
2022-08-14T23:33:34.967Z,99971.44
2022-08-14T23:36:32.222Z,99969.34
2022-08-14T23:38:54.236Z,99972.63
2022-08-14T23:41:22.174Z,99979.91
2022-08-14T23:43:54.654Z,99978.81
2022-08-14T23:46:24.024Z,99973.63
2022-08-14T23:49:04.988Z,99983.97
2022-08-14T23:51:36.294Z,99982.91
2022-08-14T23:54:06.258Z,99984.75
2022-08-14T23:57:02.730Z,99985.78
2022-08-14T23:59:32.231Z,99982.59
